createdAt,value
2019-03-27T00:01:15.710Z,1.14
2019-03-27T00:07:10.703Z,1.68
2019-03-27T00:13:05.727Z,1.23
2019-03-27T00:19:00.733Z,1.57
2019-03-27T00:24:55.738Z,1.46
2019-03-27T00:30:50.722Z,1.62
2019-03-27T00:36:45.717Z,1.39
2019-03-27T00:42:40.765Z,1.53
2019-03-27T00:48:35.797Z,1.52
2019-03-27T00:54:30.725Z,1.57
2019-03-27T01:00:25.756Z,1.7
2019-03-27T01:06:20.741Z,2.26
2019-03-27T01:12:15.837Z,1.63
2019-03-27T01:18:10.752Z,1.75
2019-03-27T01:24:05.741Z,1.68
2019-03-27T01:30:00.746Z,1.51
2019-03-27T01:35:55.753Z,1.72
2019-03-27T01:41:50.764Z,1.92
2019-03-27T01:47:45.806Z,1.77
2019-03-27T01:53:40.828Z,2.67
2019-03-27T01:59:35.762Z,2.35
2019-03-27T02:05:30.759Z,1.79
2019-03-27T02:11:25.826Z,2.85
2019-03-27T02:17:20.766Z,1.89
2019-03-27T02:23:15.772Z,1.6
2019-03-27T02:29:10.801Z,1.57
2019-03-27T02:35:05.781Z,1.95
2019-03-27T02:41:00.801Z,1.69
2019-03-27T02:46:55.799Z,2.25
2019-03-27T02:52:50.801Z,1.99
2019-03-27T02:58:45.792Z,2.15
2019-03-27T03:04:40.779Z,1.89
2019-03-27T03:10:35.786Z,2.48
2019-03-27T03:16:41.672Z,1.81
2019-03-27T03:22:25.817Z,2.22
2019-03-27T03:28:20.832Z,1.59
2019-03-27T03:34:15.849Z,1.82
2019-03-27T03:40:10.827Z,1.86
2019-03-27T03:46:05.815Z,1.66
2019-03-27T03:52:00.840Z,2.7
2019-03-27T03:57:55.821Z,1.86
2019-03-27T04:03:50.870Z,2.09
2019-03-27T04:09:45.833Z,2.13
2019-03-27T04:15:40.841Z,2.54
2019-03-27T04:21:35.844Z,2.2
2019-03-27T04:27:30.865Z,2.12
2019-03-27T04:33:25.836Z,1.76
2019-03-27T04:39:20.847Z,2.47
2019-03-27T04:45:15.861Z,1.74
2019-03-27T04:51:10.848Z,2.35
2019-03-27T04:57:05.851Z,2.27
2019-03-27T05:03:00.885Z,2.46
2019-03-27T05:08:55.847Z,1.99
2019-03-27T05:14:50.881Z,2.42
2019-03-27T05:20:45.915Z,2.74
2019-03-27T05:26:40.921Z,1.85
2019-03-27T05:32:35.881Z,1.69
2019-03-27T05:38:30.877Z,2.67
2019-03-27T05:44:25.904Z,2.33
2019-03-27T05:50:20.899Z,2.53
2019-03-27T05:56:15.872Z,1.98
2019-03-27T06:02:10.879Z,2.02
2019-03-27T06:08:05.919Z,1.87
2019-03-27T06:14:00.898Z,2.65
2019-03-27T06:19:55.899Z,2.03
2019-03-27T06:25:50.895Z,2.08
2019-03-27T06:31:45.905Z,2.62
2019-03-27T06:37:40.892Z,3.33
2019-03-27T06:43:35.944Z,3.01
2019-03-27T06:49:30.943Z,3.51
2019-03-27T06:55:25.939Z,2.74
2019-03-27T07:01:20.928Z,3.05
2019-03-27T07:07:15.929Z,3.37
2019-03-27T07:13:10.933Z,3.17
2019-03-27T07:19:05.970Z,3.33
2019-03-27T07:25:00.940Z,6.75
2019-03-27T07:30:55.939Z,6.88
2019-03-27T07:36:50.928Z,4.52
2019-03-27T07:42:45.943Z,5
2019-03-27T07:48:53.157Z,3.67
2019-03-27T07:54:35.946Z,2.55
2019-03-27T08:00:30.966Z,2.5
2019-03-27T08:06:25.984Z,2.88
2019-03-27T08:12:20.983Z,3.04
2019-03-27T08:18:15.971Z,3.58
2019-03-27T08:24:11.010Z,3.04
2019-03-27T08:30:05.956Z,1.92
2019-03-27T08:36:00.991Z,4.6
2019-03-27T08:41:56.020Z,3.4
2019-03-27T08:47:50.983Z,2.4
2019-03-27T08:53:45.979Z,2.38
2019-03-27T08:59:40.976Z,3.38
2019-03-27T09:05:36.022Z,2.1
2019-03-27T09:11:30.999Z,2.32
2019-03-27T09:17:26.025Z,2
2019-03-27T09:23:21.015Z,2.46
2019-03-27T09:29:16.018Z,2.12
2019-03-27T09:35:10.997Z,2.56
2019-03-27T09:41:06.021Z,2.4
2019-03-27T09:47:01.069Z,2.23
2019-03-27T09:52:56.008Z,2.66
2019-03-27T09:58:51.030Z,2.32
2019-03-27T10:04:46.018Z,2.15
2019-03-27T10:10:41.031Z,1.85
2019-03-27T10:16:36.039Z,2.07
2019-03-27T10:22:31.026Z,2.37
2019-03-27T10:28:26.037Z,1.98
2019-03-27T10:34:21.032Z,2.4
2019-03-27T10:40:16.059Z,2.59
2019-03-27T10:46:11.033Z,2.39
2019-03-27T10:52:06.039Z,2.06
2019-03-27T10:58:01.088Z,15.18
2019-03-27T11:03:56.059Z,2.06
2019-03-27T11:09:51.052Z,1.98
2019-03-27T11:15:46.091Z,2.46
2019-03-27T11:21:41.132Z,2.35
2019-03-27T11:27:36.057Z,2.11
2019-03-27T11:33:31.063Z,2.6
2019-03-27T11:39:26.046Z,3.44
2019-03-27T11:45:21.076Z,2.62
2019-03-27T11:51:16.102Z,2.35
2019-03-27T11:57:11.111Z,2.71
2019-03-27T12:03:06.116Z,2.87
2019-03-27T12:09:01.118Z,2.11
2019-03-27T12:14:56.098Z,2.55
2019-03-27T12:20:58.635Z,2.93
2019-03-27T12:26:46.126Z,2.99
2019-03-27T12:32:41.100Z,2.6
2019-03-27T12:38:36.111Z,2.68
2019-03-27T12:44:31.101Z,3.13
2019-03-27T12:50:26.115Z,3.59
2019-03-27T12:56:21.125Z,3.98
2019-03-27T13:02:16.128Z,8.4
2019-03-27T13:08:11.130Z,20.69
2019-03-27T13:14:06.139Z,14.42
2019-03-27T13:20:01.127Z,11.46
2019-03-27T13:25:56.114Z,14.08
2019-03-27T13:31:51.141Z,11.42
2019-03-27T13:37:46.153Z,21.31
2019-03-27T13:43:41.208Z,20.64
2019-03-27T13:49:36.130Z,6.28
2019-03-27T13:55:31.143Z,9.92
2019-03-27T14:01:26.191Z,13.4
2019-03-27T14:07:21.214Z,13.03
2019-03-27T14:13:16.141Z,2.71
2019-03-27T14:19:11.176Z,10.95
2019-03-27T14:25:06.215Z,16.2
2019-03-27T14:31:01.168Z,5.35
2019-03-27T14:36:56.188Z,9.37
2019-03-27T14:42:51.190Z,3.22
2019-03-27T14:48:46.184Z,14.8
2019-03-27T14:54:41.166Z,6.97
2019-03-27T15:00:36.173Z,12.97
2019-03-27T15:06:31.189Z,9.41
2019-03-27T15:12:26.193Z,3.17
2019-03-27T15:18:21.161Z,9.3
2019-03-27T15:24:16.195Z,2.39
2019-03-27T15:30:12.858Z,8.09
2019-03-27T15:36:06.182Z,11.9
2019-03-27T15:42:01.195Z,4.55
2019-03-27T15:47:56.193Z,7.28
2019-03-27T15:53:51.255Z,11.27
2019-03-27T15:59:46.260Z,5.13
2019-03-27T16:05:41.213Z,3.08
2019-03-27T16:11:36.241Z,6.31
2019-03-27T16:17:31.257Z,8.88
2019-03-27T16:23:26.236Z,7.13
2019-03-27T16:29:21.214Z,5.9
2019-03-27T16:35:16.234Z,8.73
2019-03-27T16:41:11.282Z,5.24
2019-03-27T16:47:06.259Z,3.06
2019-03-27T16:53:03.549Z,5.23
2019-03-27T16:58:56.246Z,4.51
2019-03-27T17:04:51.236Z,3.94
2019-03-27T17:10:46.243Z,4.65
2019-03-27T17:16:41.274Z,3.17
2019-03-27T17:22:41.780Z,7.63
2019-03-27T17:28:31.297Z,4.02
2019-03-27T17:34:58.735Z,4.1
2019-03-27T17:40:21.266Z,5.3
2019-03-27T17:46:16.262Z,9.23
2019-03-27T17:52:11.258Z,3.32
2019-03-27T17:58:06.280Z,4.66
2019-03-27T18:04:01.283Z,5.37
2019-03-27T18:09:56.261Z,6.41
2019-03-27T18:15:51.286Z,5.46
2019-03-27T18:21:46.321Z,4.64
2019-03-27T18:27:41.283Z,4.58
2019-03-27T18:33:36.277Z,3.71
2019-03-27T18:39:31.302Z,5.66
2019-03-27T18:45:26.315Z,5.62
2019-03-27T18:51:21.293Z,5.26
2019-03-27T18:57:16.337Z,4.64
2019-03-27T19:03:11.395Z,4.36
2019-03-27T19:09:06.330Z,4.55
2019-03-27T19:15:01.342Z,4.35
2019-03-27T19:20:56.337Z,3.99
2019-03-27T19:26:51.316Z,3.81
2019-03-27T19:32:46.319Z,4.4
2019-03-27T19:38:41.335Z,5.63
2019-03-27T19:44:36.325Z,3.85
2019-03-27T19:50:31.314Z,2.77
2019-03-27T19:56:26.343Z,2.91
2019-03-27T20:02:21.367Z,4.11
2019-03-27T20:08:16.381Z,2.93
2019-03-27T20:14:11.364Z,2.68
2019-03-27T20:20:07.327Z,2.62
2019-03-27T20:26:01.390Z,3.02
2019-03-27T20:31:56.345Z,2.98
2019-03-27T20:37:51.365Z,3.26
2019-03-27T20:43:46.363Z,3.15
2019-03-27T20:49:41.399Z,3.15
2019-03-27T20:55:36.368Z,2.76
2019-03-27T21:01:31.378Z,2.4
2019-03-27T21:07:26.386Z,2.25
2019-03-27T21:13:21.385Z,2.46
2019-03-27T21:19:16.388Z,2.81
2019-03-27T21:25:11.420Z,4.3
2019-03-27T21:31:06.391Z,3.66
2019-03-27T21:37:01.390Z,3.04
2019-03-27T21:42:56.431Z,2.31
2019-03-27T21:48:51.396Z,2.24
2019-03-27T21:54:46.377Z,2.48
2019-03-27T22:00:41.411Z,2.39
2019-03-27T22:06:36.409Z,2.48
2019-03-27T22:12:31.408Z,2.51
2019-03-27T22:18:26.406Z,1.86
2019-03-27T22:24:21.452Z,2.07
2019-03-27T22:30:16.417Z,1.88
2019-03-27T22:36:11.442Z,1.95
2019-03-27T22:42:06.401Z,1.8
2019-03-27T22:48:01.454Z,1.52
2019-03-27T22:53:56.423Z,1.59
2019-03-27T22:59:51.464Z,1.94
2019-03-27T23:05:46.424Z,2.33
2019-03-27T23:11:41.453Z,2.64
2019-03-27T23:17:36.454Z,1.7
2019-03-27T23:23:31.467Z,2.16
2019-03-27T23:29:26.432Z,1.94
2019-03-27T23:35:21.453Z,1.58
2019-03-27T23:41:16.448Z,2.57
2019-03-27T23:47:11.468Z,1.67
2019-03-27T23:53:06.446Z,1.84
2019-03-27T23:59:01.480Z,1.72
